Obera, Argentina
Current Conditions -  °F | °C
As of 6:00 PM on Saturday 22 Nov 2014 (Local Time) from SARP Reporting Station
Few Clouds Few Clouds  
Wind Chill: 81°   Ceiling: Unl
Heat Index: 81°   Visibility: 6mi
Dew Point: 55°   Wind: 9mph
Humidity: 42%   Direction: 200°SSW
Pressure: 29.88"   Gusts: NA
Location:  27.48°S, 55.13°W
Report Text: SARP 222100Z 20008KT 9999 FEW035 27/13 Q1012
Loading
Personal Weather Stations






























Interactive Weather Map New forecast layout! Learn more

10-Day Weather Forecast

Advertisements
Track Severe Weather on mobile